createdAt,value
2018-05-23T02:15:05.442Z,18.59
2018-05-23T04:43:27.050Z,16.91
2018-05-23T04:47:42.331Z,16.96
2018-05-23T04:48:23.336Z,16.88
2018-05-23T04:49:11.231Z,16.99
2018-05-23T04:49:52.376Z,16.92
2018-05-23T04:50:33.103Z,16.99
2018-05-23T04:51:14.427Z,17.09
2018-05-23T04:51:54.788Z,17.14
2018-05-23T04:52:35.155Z,17.14
2018-05-23T04:53:15.697Z,17.14
2018-05-23T04:53:55.948Z,17.14
2018-05-23T04:54:36.433Z,17.18
2018-05-23T04:55:16.896Z,17.3
2018-05-23T04:55:57.367Z,17.36
2018-05-23T04:56:37.831Z,17.43
2018-05-23T04:57:18.278Z,17.45
2018-05-23T04:57:58.994Z,17.47
2018-05-23T04:58:39.819Z,17.53
2018-05-23T04:59:20.329Z,17.53
2018-05-23T05:00:01.083Z,17.58
2018-05-23T05:00:41.862Z,17.6
2018-05-23T05:01:23.632Z,17.62
2018-05-23T05:02:04.999Z,17.73
2018-05-23T05:02:45.438Z,17.74
2018-05-23T05:03:26.216Z,17.76
2018-05-23T05:04:07.388Z,17.86
2018-05-23T05:04:48.382Z,17.83
2018-05-23T05:05:29.224Z,17.89
2018-05-23T05:06:11.883Z,17.89
2018-05-23T05:06:52.292Z,17.98
2018-05-23T05:07:33.142Z,17.99
2018-05-23T05:08:14.080Z,18.07
2018-05-23T05:08:54.787Z,18.07
2018-05-23T05:09:35.412Z,18.11
2018-05-23T05:10:16.192Z,18.13
2018-05-23T05:10:57.239Z,18.25
2018-05-23T05:11:37.889Z,18.17
2018-05-23T05:12:19.006Z,18.28
2018-05-23T05:13:00.099Z,18.25
2018-05-23T05:13:41.273Z,18.34
2018-05-23T05:14:21.872Z,18.39
2018-05-23T05:15:02.620Z,18.36
2018-05-23T05:15:43.348Z,18.38
2018-05-23T05:16:24.130Z,18.46
2018-05-23T05:17:04.843Z,18.46
2018-05-23T05:17:45.485Z,18.53
2018-05-23T05:18:26.709Z,18.62
2018-05-23T05:19:08.660Z,18.56
2018-05-23T05:19:50.852Z,18.62
2018-05-23T05:20:31.630Z,18.6
2018-05-23T05:21:11.997Z,18.64
2018-05-23T05:21:52.527Z,18.71
2018-05-23T05:22:33.164Z,18.69
2018-05-23T05:23:14.173Z,18.83
2018-05-23T05:23:54.463Z,18.86
2018-05-23T05:24:36.074Z,18.82
2018-05-23T05:25:16.821Z,18.83
2018-05-23T05:25:57.194Z,18.86
2018-05-23T05:26:37.591Z,18.93
2018-05-23T05:27:18.147Z,18.93
2018-05-23T05:27:58.644Z,19.01
2018-05-23T05:28:39.222Z,18.97
2018-05-23T05:29:19.791Z,19.06
2018-05-23T05:30:00.025Z,19.05
2018-05-23T05:30:40.414Z,19.09
2018-05-23T05:31:20.916Z,19.07
2018-05-23T05:32:01.351Z,19.07
2018-05-23T05:32:41.883Z,19.07
2018-05-23T05:33:22.293Z,19.06
2018-05-23T05:34:02.823Z,19.1
2018-05-23T05:34:43.240Z,19.09
2018-05-23T05:35:24.714Z,19.1
2018-05-23T05:36:05.291Z,19.17
2018-05-23T05:36:45.551Z,19.24
2018-05-23T05:37:26.219Z,19.23
2018-05-23T05:38:07.963Z,19.17
2018-05-23T05:38:48.236Z,19.25
2018-05-23T05:39:28.726Z,19.25
2018-05-23T05:40:12.605Z,19.27
2018-05-23T05:40:54.299Z,19.3
2018-05-23T05:44:46.267Z,19.27
2018-05-23T05:45:36.608Z,19.3
2018-05-23T05:46:19.425Z,19.35
2018-05-23T05:46:59.553Z,19.39
2018-05-23T05:47:41.375Z,19.35
2018-05-23T05:48:22.070Z,19.46
2018-05-23T05:49:02.495Z,19.32
2018-05-23T05:49:43.105Z,19.38
2018-05-23T05:50:23.551Z,19.4
2018-05-23T05:51:04.008Z,19.39
2018-05-23T05:51:44.409Z,19.46
2018-05-23T05:55:07.898Z,19.52
2018-05-23T05:56:00.981Z,19.55
2018-05-23T05:56:41.940Z,19.64
2018-05-23T05:57:28.524Z,19.61
2018-05-23T05:58:16.765Z,19.58
2018-05-23T06:05:21.039Z,19.71
2018-05-23T06:06:02.492Z,19.67
2018-05-23T06:06:43.317Z,19.75
2018-05-23T06:07:24.089Z,19.8
2018-05-23T06:08:04.429Z,19.65
2018-05-23T06:08:45.155Z,19.76
2018-05-23T06:09:26.452Z,19.7
2018-05-23T06:10:07.280Z,19.85
2018-05-23T06:10:48.027Z,19.78
2018-05-23T06:11:28.463Z,19.79
2018-05-23T06:12:09.204Z,19.8
2018-05-23T06:12:52.513Z,19.8
2018-05-23T06:13:32.838Z,19.82
2018-05-23T06:14:13.703Z,19.9
2018-05-23T06:14:54.081Z,19.94
2018-05-23T06:15:34.523Z,19.98
2018-05-23T06:16:15.054Z,20.08
2018-05-23T06:16:59.798Z,19.92
2018-05-23T06:18:51.975Z,20.02
2018-05-23T06:26:16.976Z,20.31
2018-05-23T06:27:04.429Z,20.33
2018-05-23T06:28:01.496Z,20.22
2018-05-23T06:34:08.292Z,20.41
2018-05-23T06:41:07.002Z,20.48
2018-05-23T06:42:52.032Z,20.5
2018-05-23T06:43:59.828Z,20.56
2018-05-23T06:46:58.837Z,20.58
2018-05-23T06:49:02.884Z,20.64
2018-05-23T06:49:53.800Z,20.73
2018-05-23T06:50:33.762Z,20.64
2018-05-23T06:51:14.755Z,20.75
2018-05-23T06:51:55.053Z,20.78
2018-05-23T06:52:35.894Z,20.76
2018-05-23T06:53:17.686Z,20.79
2018-05-23T06:53:59.317Z,20.83
2018-05-23T06:54:40.006Z,20.81
2018-05-23T06:55:22.369Z,20.82
2018-05-23T06:56:02.834Z,20.81
2018-05-23T06:56:46.072Z,20.9
2018-05-23T06:57:26.744Z,20.94
2018-05-23T06:58:07.936Z,20.83
2018-05-23T06:58:48.346Z,20.85
2018-05-23T06:59:28.832Z,20.93
2018-05-23T07:00:10.359Z,20.94
2018-05-23T07:00:51.778Z,20.97
2018-05-23T07:01:34.090Z,21.03
2018-05-23T07:02:14.557Z,20.91
2018-05-23T07:02:55.302Z,21.01
2018-05-23T07:03:36.368Z,20.98
2018-05-23T07:04:16.993Z,21.09
2018-05-23T07:04:58.023Z,21.06
2018-05-23T07:05:38.548Z,21.16
2018-05-23T07:06:19.449Z,21.16
2018-05-23T07:06:59.924Z,21.19
2018-05-23T07:07:41.704Z,21.16
2018-05-23T07:08:21.560Z,21.22
2018-05-23T07:09:05.182Z,21.31
2018-05-23T07:09:46.796Z,21.4
2018-05-23T07:10:27.953Z,21.33
2018-05-23T07:11:08.445Z,21.33
2018-05-23T07:11:51.619Z,21.36
2018-05-23T07:12:39.092Z,21.38
2018-05-23T07:13:19.431Z,21.42
2018-05-23T07:14:02.021Z,21.45
2018-05-23T07:14:44.325Z,21.55
2018-05-23T07:15:24.931Z,21.61
2018-05-23T07:16:05.640Z,21.51
2018-05-23T07:16:46.110Z,21.7
2018-05-23T07:17:27.212Z,21.7
2018-05-23T07:18:09.083Z,21.66
2018-05-23T07:18:51.368Z,21.73
2018-05-23T07:19:32.336Z,21.79
2018-05-23T07:20:13.678Z,21.9
2018-05-23T07:21:54.036Z,21.98
2018-05-23T07:24:23.428Z,22.11
2018-05-23T07:25:04.169Z,22.05
2018-05-23T07:25:44.854Z,22.12
2018-05-23T07:26:25.224Z,22.26
2018-05-23T07:27:06.331Z,22.08
2018-05-23T07:27:46.838Z,22.14
2018-05-23T07:28:27.137Z,22.06
2018-05-23T07:29:08.592Z,22.11
2018-05-23T07:29:48.836Z,22.15
2018-05-23T07:30:29.691Z,22.26
2018-05-23T07:31:10.290Z,22.2
2018-05-23T07:31:50.730Z,22.29
2018-05-23T07:32:31.435Z,22.31
2018-05-23T07:33:11.862Z,22.35
2018-05-23T07:35:26.809Z,22.52
2018-05-23T07:36:09.700Z,22.56
2018-05-23T07:36:50.316Z,22.63
2018-05-23T07:37:30.662Z,22.63
2018-05-23T07:38:11.189Z,22.72
2018-05-23T07:38:52.699Z,22.75
2018-05-23T07:39:33.248Z,22.93
2018-05-23T07:40:14.735Z,22.88
2018-05-23T07:40:55.191Z,22.96
2018-05-23T07:41:35.620Z,22.91
2018-05-23T07:42:16.131Z,22.89
2018-05-23T07:42:57.610Z,22.94
2018-05-23T07:43:37.867Z,23.09
2018-05-23T07:44:19.896Z,23.03
2018-05-23T07:45:00.567Z,23.06
2018-05-23T07:45:45.576Z,23.15
2018-05-23T07:46:30.044Z,23.32
2018-05-23T07:47:13.915Z,23.29
2018-05-23T07:47:54.439Z,23.34
2018-05-23T07:48:37.530Z,23.52
2018-05-23T07:54:24.930Z,24.3
2018-05-23T07:55:07.309Z,24.41
2018-05-23T07:55:48.396Z,24.55
2018-05-23T07:56:28.827Z,24.67
2018-05-23T07:57:10.204Z,24.8
2018-05-23T07:59:15.272Z,25.05
2018-05-23T08:00:01.396Z,25.27
2018-05-23T08:00:46.689Z,25.42
2018-05-23T08:01:29.889Z,25.49
2018-05-23T08:02:14.602Z,25.67
2018-05-23T08:02:55.981Z,25.69
2018-05-23T08:03:41.350Z,25.83
2018-05-23T08:04:26.098Z,25.96
2018-05-23T08:05:11.343Z,26.13
2018-05-23T08:05:58.211Z,26.19
2018-05-23T08:06:45.097Z,26.35
2018-05-23T08:07:30.114Z,26.44
2018-05-23T08:08:15.095Z,26.53
2018-05-23T08:09:10.489Z,26.64
2018-05-23T08:11:09.866Z,26.61
2018-05-23T08:11:51.160Z,26.6
2018-05-23T08:12:32.021Z,26.75
2018-05-23T08:13:12.467Z,26.84
2018-05-23T08:13:53.558Z,27.01
2018-05-23T08:14:33.920Z,27.13
2018-05-23T08:15:14.359Z,27.11
2018-05-23T08:15:57.788Z,26.97
2018-05-23T08:16:39.326Z,27.12
2018-05-23T08:17:19.881Z,27.05
2018-05-23T08:18:01.250Z,27.15
2018-05-23T08:22:50.830Z,27.49
2018-05-23T08:24:45.240Z,27.58
2018-05-23T08:25:25.094Z,27.5
2018-05-23T08:26:06.019Z,27.49
2018-05-23T08:26:46.090Z,27.53
2018-05-23T08:27:26.527Z,27.53
2018-05-23T08:28:10.761Z,27.45
2018-05-23T08:28:52.440Z,27.53
2018-05-23T08:29:34.303Z,27.5
2018-05-23T08:30:14.758Z,27.55
2018-05-23T08:30:55.777Z,27.42
2018-05-23T08:31:37.855Z,27.25
2018-05-23T08:32:20.687Z,27.34
2018-05-23T08:33:02.120Z,27.39
2018-05-23T08:33:50.492Z,27.53
2018-05-23T08:34:30.895Z,27.63
2018-05-23T08:35:11.326Z,27.68
2018-05-23T08:35:51.837Z,27.65
2018-05-23T08:36:32.503Z,27.83
2018-05-23T08:37:14.630Z,27.69
2018-05-23T08:37:56.732Z,27.83
2018-05-23T08:38:38.583Z,27.93
2018-05-23T08:39:20.018Z,27.98
2018-05-23T08:40:00.772Z,28.05
2018-05-23T08:40:45.268Z,28.05
2018-05-23T08:41:26.264Z,28.21
2018-05-23T08:42:06.296Z,28.18
2018-05-23T08:42:49.697Z,28.36
2018-05-23T08:43:31.987Z,28.51
2018-05-23T08:44:12.738Z,28.67
2018-05-23T08:44:54.351Z,28.74
2018-05-23T08:45:37.717Z,28.85
2018-05-23T08:46:19.331Z,28.95
2018-05-23T08:47:05.134Z,28.97
2018-05-23T08:47:44.336Z,29.05
2018-05-23T08:48:25.872Z,29.1
2018-05-23T08:49:06.635Z,29
2018-05-23T08:49:47.585Z,29.11
2018-05-23T08:50:28.128Z,29.14
2018-05-23T08:51:12.385Z,29.21
2018-05-23T08:53:18.728Z,29.37
2018-05-23T08:58:59.590Z,29.63
2018-05-23T09:11:34.046Z,29.57
2018-05-23T09:12:18.474Z,29.62
2018-05-23T09:13:00.103Z,29.66
2018-05-23T09:13:43.099Z,29.64
2018-05-23T09:14:27.691Z,29.67
2018-05-23T09:15:06.147Z,29.6
2018-05-23T09:15:47.399Z,29.44
2018-05-23T09:22:54.604Z,28.89
2018-05-23T09:23:34.768Z,28.76
2018-05-23T09:24:15.060Z,28.72
2018-05-23T09:24:55.592Z,28.69
2018-05-23T09:25:42.857Z,28.65
2018-05-23T09:26:24.899Z,28.67
2018-05-23T09:27:14.096Z,28.73
2018-05-23T09:28:07.020Z,28.73
2018-05-23T09:29:10.110Z,28.74
2018-05-23T09:35:25.947Z,28.27
2018-05-23T09:36:08.398Z,28.21
2018-05-23T09:36:48.811Z,28.3
2018-05-23T09:37:29.214Z,28.27
2018-05-23T09:38:12.752Z,28.24
2018-05-23T09:39:00.258Z,28.2
2018-05-23T09:39:40.676Z,28.35
2018-05-23T09:42:18.498Z,28.48
2018-05-23T09:43:56.113Z,28.18
2018-05-23T09:44:36.274Z,28.06
2018-05-23T09:45:17.751Z,28.08
2018-05-23T09:45:58.549Z,28.02
2018-05-23T09:50:10.063Z,27.9
2018-05-23T09:50:50.666Z,27.87
2018-05-23T09:51:32.652Z,27.91
2018-05-23T09:55:42.787Z,28.05
2018-05-23T09:56:21.417Z,28.08
2018-05-23T09:57:01.771Z,28.08
2018-05-23T09:57:44.391Z,28.09
2018-05-23T09:58:25.015Z,28.11
2018-05-23T09:59:05.923Z,27.93
2018-05-23T09:59:46.086Z,27.81
2018-05-23T10:00:26.729Z,27.8
2018-05-23T10:01:08.040Z,27.71
2018-05-23T10:01:48.307Z,27.58
2018-05-23T10:02:59.293Z,27.52
2018-05-23T10:03:39.675Z,27.46
2018-05-23T10:44:24.426Z,23.45
2018-05-23T10:50:39.273Z,23.68
2018-05-23T10:51:22.492Z,23.77
2018-05-23T10:52:03.097Z,23.9
2018-05-23T10:53:41.854Z,24.16
2018-05-23T10:58:09.283Z,25.08
2018-05-23T10:58:49.619Z,25.24
2018-05-23T10:59:30.697Z,25.38
2018-05-23T11:00:21.396Z,25.63
2018-05-23T11:01:01.869Z,25.72
2018-05-23T11:01:42.440Z,25.94
2018-05-23T11:02:23.872Z,26.13
2018-05-23T11:03:03.927Z,26.28
2018-05-23T11:03:44.976Z,26.29
2018-05-23T11:04:25.401Z,26.34
2018-05-23T11:05:06.804Z,26.2
2018-05-23T11:05:47.902Z,26.2
2018-05-23T11:06:31.994Z,25.97
2018-05-23T11:07:12.533Z,26.04
2018-05-23T11:07:53.666Z,25.91
2018-05-23T11:08:34.935Z,25.72
2018-05-23T11:09:15.310Z,25.75
2018-05-23T11:09:57.159Z,25.71
2018-05-23T11:10:37.375Z,25.69
2018-05-23T11:11:18.888Z,25.89
2018-05-23T11:12:00.492Z,26.17
2018-05-23T11:12:41.845Z,26.27
2018-05-23T11:13:22.879Z,26.47
2018-05-23T11:14:03.479Z,26.59
2018-05-23T11:14:45.484Z,26.9
2018-05-23T11:15:30.389Z,27.01
2018-05-23T11:16:11.704Z,27.11
2018-05-23T11:16:52.094Z,27.28
2018-05-23T11:17:32.775Z,27.38
2018-05-23T11:18:13.409Z,27.25
2018-05-23T11:18:54.193Z,27.2
2018-05-23T11:19:34.597Z,27.24
2018-05-23T11:20:15.462Z,27.35
2018-05-23T11:20:56.135Z,27.43
2018-05-23T11:21:37.117Z,27.53
2018-05-23T11:22:17.741Z,27.58
2018-05-23T11:22:58.482Z,27.83
2018-05-23T11:23:39.071Z,27.93
2018-05-23T11:24:24.064Z,27.86
2018-05-23T11:25:04.943Z,27.8
2018-05-23T11:25:45.919Z,27.74
2018-05-23T11:26:27.396Z,27.66
2018-05-23T11:27:07.762Z,27.49
2018-05-23T11:27:50.113Z,27.24
2018-05-23T11:28:31.575Z,27.13
2018-05-23T11:29:13.006Z,27.08
2018-05-23T11:29:56.401Z,27.08
2018-05-23T11:30:36.908Z,27.11
2018-05-23T11:35:03.815Z,26.57
2018-05-23T11:35:44.239Z,26.66
2018-05-23T11:36:24.948Z,26.51
2018-05-23T11:37:05.395Z,26.34
2018-05-23T11:37:45.845Z,26.21
2018-05-23T11:38:27.127Z,26.04
2018-05-23T11:39:10.490Z,25.98
2018-05-23T11:39:51.160Z,25.91
2018-05-23T11:40:34.268Z,25.91
2018-05-23T11:41:14.709Z,26.03
2018-05-23T11:41:55.460Z,25.91
2018-05-23T11:42:35.957Z,25.83
2018-05-23T11:43:17.605Z,25.74
2018-05-23T11:43:58.982Z,25.6
2018-05-23T11:44:40.352Z,25.6
2018-05-23T11:45:20.902Z,25.63
2018-05-23T11:47:08.291Z,25.39
2018-05-23T11:48:07.133Z,25.42
2018-05-23T11:48:48.061Z,25.44
2018-05-23T11:49:28.535Z,25.23
2018-05-23T11:50:10.437Z,25.08
2018-05-23T11:50:50.085Z,25.07
2018-05-23T11:51:30.753Z,25.07
2018-05-23T11:52:11.391Z,25.07
2018-05-23T11:52:52.228Z,25.17
2018-05-23T11:53:32.944Z,25.26
2018-05-23T11:54:13.781Z,25.27
2018-05-23T11:54:54.473Z,25.39
2018-05-23T11:55:35.103Z,25.48
2018-05-23T11:56:15.830Z,25.46
2018-05-23T11:56:57.011Z,25.51
2018-05-23T11:57:37.602Z,25.51
2018-05-23T11:58:20.483Z,25.54
2018-05-23T11:59:01.448Z,25.57
2018-05-23T11:59:41.690Z,25.81
2018-05-23T12:00:24.041Z,25.94
2018-05-23T12:01:03.961Z,26.16
2018-05-23T12:01:44.402Z,26.11
2018-05-23T12:02:25.529Z,26.04
2018-05-23T12:05:58.252Z,25.49
2018-05-23T12:06:43.662Z,25.57
2018-05-23T12:07:24.719Z,25.67
2018-05-23T12:08:05.690Z,25.81
2018-05-23T12:08:47.940Z,25.76
2018-05-23T12:09:30.156Z,25.66
2018-05-23T12:10:10.666Z,25.71
2018-05-23T12:10:51.227Z,25.66
2018-05-23T12:11:32.427Z,25.59
2018-05-23T12:12:13.089Z,25.59
2018-05-23T12:12:53.873Z,25.54
2018-05-23T12:13:34.395Z,25.53
2018-05-23T12:14:15.093Z,25.44
2018-05-23T12:14:55.671Z,25.44
2018-05-23T12:15:36.167Z,25.41
2018-05-23T12:16:17.163Z,25.39
2018-05-23T12:16:57.566Z,25.39
2018-05-23T12:17:38.655Z,25.44
2018-05-23T12:18:20.397Z,25.44
2018-05-23T12:19:00.815Z,25.44
2018-05-23T12:19:41.418Z,25.46
2018-05-23T12:20:21.907Z,25.6
2018-05-23T12:21:02.402Z,25.61
2018-05-23T12:21:43.026Z,25.46
2018-05-23T12:22:23.470Z,25.59
2018-05-23T12:23:05.215Z,25.46
2018-05-23T12:23:45.713Z,25.3
2018-05-23T12:24:26.719Z,25.26
2018-05-23T12:25:07.715Z,25.26
2018-05-23T12:25:48.282Z,25.41
2018-05-23T12:26:29.003Z,25.54
2018-05-23T12:27:09.366Z,25.56
2018-05-23T12:27:50.021Z,25.72
2018-05-23T12:28:30.937Z,25.96
2018-05-23T12:29:11.311Z,26.16
2018-05-23T12:29:51.919Z,26.36
2018-05-23T12:30:32.352Z,26.47
2018-05-23T12:31:13.563Z,26.6
2018-05-23T12:32:08.570Z,26.47
2018-05-23T12:32:48.960Z,25.98
2018-05-23T12:33:29.460Z,25.66
2018-05-23T12:34:09.748Z,25.66
2018-05-23T12:34:51.035Z,25.49
2018-05-23T12:35:31.407Z,25.54
2018-05-23T12:36:12.229Z,25.81
2018-05-23T12:36:52.576Z,26.04
2018-05-23T12:37:33.244Z,26.16
2018-05-23T12:38:14.261Z,26.2
2018-05-23T12:38:55.722Z,26.04
2018-05-23T12:39:37.679Z,25.91
2018-05-23T12:40:18.396Z,25.86
2018-05-23T12:40:59.292Z,25.75
2018-05-23T12:41:40.306Z,25.51
2018-05-23T12:42:21.305Z,25.48
2018-05-23T12:43:01.496Z,25.61
2018-05-23T12:43:42.054Z,25.72
2018-05-23T12:44:23.328Z,25.56
2018-05-23T12:45:03.793Z,25.48
2018-05-23T12:45:44.280Z,25.36
2018-05-23T12:46:25.258Z,25.44
2018-05-23T12:47:05.435Z,25.46
2018-05-23T12:47:46.102Z,25.35
2018-05-23T12:48:26.775Z,25.44
2018-05-23T12:49:08.157Z,25.36
2018-05-23T12:49:48.623Z,25.36
2018-05-23T12:50:28.990Z,25.34
2018-05-23T12:51:09.722Z,25.23
2018-05-23T12:51:50.982Z,25.22
2018-05-23T12:52:30.914Z,25.04
2018-05-23T12:53:11.618Z,24.84
2018-05-23T12:53:52.034Z,24.56
2018-05-23T12:54:32.741Z,24.46
2018-05-23T12:55:13.670Z,24.59
2018-05-23T12:55:56.708Z,24.8
2018-05-23T12:56:40.569Z,24.97
2018-05-23T12:57:44.611Z,25.2
2018-05-23T12:58:34.366Z,25.49
2018-05-23T12:59:30.168Z,25.61
2018-05-23T13:02:24.721Z,26.12
2018-05-23T13:03:55.745Z,26.24
2018-05-23T13:04:36.242Z,26.09
2018-05-23T13:05:16.663Z,25.83
2018-05-23T13:05:57.524Z,25.82
2018-05-23T13:06:39.003Z,25.75
2018-05-23T13:07:19.808Z,25.6
2018-05-23T13:08:01.089Z,25.71
2018-05-23T13:08:41.550Z,25.81
2018-05-23T13:09:22.147Z,25.89
2018-05-23T13:10:02.459Z,25.74
2018-05-23T13:10:42.884Z,25.63
2018-05-23T13:11:24.362Z,25.41
2018-05-23T13:12:04.781Z,25.36
2018-05-23T13:12:45.385Z,25.44
2018-05-23T13:13:26.654Z,25.61
2018-05-23T13:14:08.287Z,25.82
2018-05-23T13:14:48.640Z,26.13
2018-05-23T13:15:29.256Z,26.41
2018-05-23T13:16:10.480Z,26.61
2018-05-23T13:16:50.816Z,26.68
2018-05-23T13:17:31.300Z,26.88
2018-05-23T13:18:11.811Z,26.61
2018-05-23T13:18:52.365Z,26.79
2018-05-23T13:19:32.808Z,27.01
2018-05-23T13:20:14.467Z,27.2
2018-05-23T13:22:27.055Z,27.91
2018-05-23T13:23:08.731Z,27.87
2018-05-23T13:23:50.623Z,27.74
2018-05-23T13:24:31.029Z,27.76
2018-05-23T13:25:12.179Z,27.71
2018-05-23T13:25:52.723Z,27.59
2018-05-23T13:26:33.031Z,27.61
2018-05-23T13:27:13.520Z,27.48
2018-05-23T13:27:54.518Z,27.45
2018-05-23T13:28:34.975Z,27.48
2018-05-23T13:32:04.901Z,27.55
2018-05-23T13:32:46.232Z,27.06
2018-05-23T13:33:26.884Z,26.83
2018-05-23T13:34:07.795Z,26.51
2018-05-23T13:34:48.460Z,26.36
2018-05-23T13:35:29.707Z,26.38
2018-05-23T13:36:11.062Z,26.32
2018-05-23T13:36:52.804Z,26.46
2018-05-23T13:37:38.690Z,26.49
2018-05-23T13:38:19.708Z,26.61
2018-05-23T13:39:00.062Z,26.72
2018-05-23T13:39:41.352Z,26.78
2018-05-23T13:40:22.011Z,26.94
2018-05-23T13:41:03.113Z,26.87
2018-05-23T13:41:58.928Z,26.61
2018-05-23T13:42:40.559Z,26.49
2018-05-23T13:43:21.530Z,26.51
2018-05-23T13:44:02.454Z,26.5
2018-05-23T13:44:43.032Z,26.23
2018-05-23T13:45:23.610Z,26.03
2018-05-23T13:46:04.159Z,25.81
2018-05-23T13:46:45.118Z,25.61
2018-05-23T13:47:26.011Z,25.42
2018-05-23T13:48:06.333Z,25.39
2018-05-23T13:48:47.088Z,25.38
2018-05-23T13:49:28.036Z,25.3
2018-05-23T13:50:08.179Z,25.3
2018-05-23T13:50:48.731Z,25.36
2018-05-23T13:51:29.299Z,25.38
2018-05-23T13:52:10.351Z,25.22
2018-05-23T13:52:50.856Z,25.16
2018-05-23T13:53:31.377Z,25.16
2018-05-23T13:54:13.383Z,25.08
2018-05-23T13:54:53.538Z,25.23
2018-05-23T13:55:33.727Z,25.39
2018-05-23T13:56:14.307Z,25.45
2018-05-23T13:56:54.740Z,25.54
2018-05-23T13:57:35.185Z,25.63
2018-05-23T13:58:15.721Z,25.67
2018-05-23T13:58:56.170Z,25.6
2018-05-23T13:59:36.617Z,25.59
2018-05-23T14:00:17.130Z,25.56
2018-05-23T14:00:57.721Z,25.56
2018-05-23T14:01:39.512Z,25.35
2018-05-23T14:02:20.036Z,25.26
2018-05-23T14:03:01.054Z,25.08
2018-05-23T14:03:43.609Z,25.07
2018-05-23T14:04:28.497Z,25.23
2018-05-23T14:05:18.570Z,25.27
2018-05-23T14:05:59.223Z,25.38
2018-05-23T14:06:39.622Z,25.38
2018-05-23T14:07:20.467Z,25.46
2018-05-23T14:08:02.968Z,25.48
2018-05-23T14:08:47.590Z,25.41
2018-05-23T14:09:28.071Z,25.38
2018-05-23T14:10:08.817Z,25.36
2018-05-23T14:10:49.182Z,25.42
2018-05-23T14:11:29.652Z,25.39
2018-05-23T14:12:10.197Z,25.34
2018-05-23T14:12:50.820Z,25.48
2018-05-23T14:13:31.628Z,25.61
2018-05-23T14:14:34.466Z,25.67
2018-05-23T14:16:31.782Z,25.82
2018-05-23T14:17:12.051Z,25.75
2018-05-23T14:17:52.475Z,25.75
2018-05-23T14:18:32.869Z,25.74
2018-05-23T14:19:14.036Z,25.83
2018-05-23T14:19:54.342Z,25.97
2018-05-23T14:20:34.910Z,26.09
2018-05-23T14:21:15.366Z,26.09
2018-05-23T14:21:55.769Z,26.12
2018-05-23T14:22:36.299Z,26.28
2018-05-23T14:24:23.712Z,26.35
2018-05-23T14:25:04.398Z,26.5
2018-05-23T14:25:44.710Z,26.42
2018-05-23T14:26:26.197Z,26.44
2018-05-23T14:27:06.768Z,26.47
2018-05-23T14:27:47.044Z,26.49
2018-05-23T14:28:27.560Z,26.59
2018-05-23T14:29:08.640Z,26.6
2018-05-23T14:29:49.061Z,26.53
2018-05-23T14:30:29.450Z,26.36
2018-05-23T14:31:09.845Z,26.19
2018-05-23T14:31:50.269Z,26.2
2018-05-23T14:32:30.886Z,26.11
2018-05-23T14:33:11.153Z,26.06
2018-05-23T14:33:52.322Z,26.17
2018-05-23T14:34:32.911Z,26.08
2018-05-23T14:35:18.873Z,26.08
2018-05-23T14:35:59.375Z,26.04
2018-05-23T14:36:39.790Z,26.08
2018-05-23T14:37:20.194Z,26.12
2018-05-23T14:38:01.511Z,26.2
2018-05-23T14:38:41.863Z,26.23
2018-05-23T14:39:22.266Z,26.36
2018-05-23T14:40:02.730Z,26.42
2018-05-23T14:40:43.133Z,26.42
2018-05-23T14:41:23.642Z,26.35
2018-05-23T14:42:04.290Z,26.31
2018-05-23T14:42:44.686Z,26.24
2018-05-23T14:43:25.277Z,26.2
2018-05-23T14:44:12.891Z,26.19
2018-05-23T14:44:54.820Z,26.2
2018-05-23T14:45:42.992Z,26.35
2018-05-23T14:46:23.445Z,26.35
2018-05-23T14:47:04.003Z,26.34
2018-05-23T14:47:44.428Z,26.34
2018-05-23T14:48:26.954Z,26.35
2018-05-23T14:49:07.392Z,26.32
2018-05-23T14:49:48.545Z,26.36
2018-05-23T14:50:29.097Z,26.36
2018-05-23T14:51:09.564Z,26.35
2018-05-23T14:51:51.705Z,26.47
2018-05-23T14:52:32.249Z,26.56
2018-05-23T14:53:12.751Z,26.61
2018-05-23T14:53:55.946Z,26.73
2018-05-23T14:54:37.118Z,26.84
2018-05-23T14:55:17.542Z,26.96
2018-05-23T14:55:58.520Z,27.11
2018-05-23T14:56:38.758Z,27.27
2018-05-23T14:57:19.499Z,27.35
2018-05-23T14:58:00.932Z,27.58
2018-05-23T14:58:42.176Z,27.66
2018-05-23T14:59:22.156Z,27.88
2018-05-23T15:00:03.340Z,27.9
2018-05-23T15:00:44.607Z,28.08
2018-05-23T15:01:26.543Z,28.15
2018-05-23T15:02:08.011Z,28.27
2018-05-23T15:02:50.349Z,28.36
2018-05-23T15:03:29.945Z,28.42
2018-05-23T15:04:11.449Z,28.6
2018-05-23T15:04:52.863Z,28.69
2018-05-23T15:05:33.407Z,28.91
2018-05-23T15:06:15.371Z,28.89
2018-05-23T15:06:57.873Z,29
2018-05-23T15:07:38.484Z,28.98
2018-05-23T15:08:19.961Z,28.91
2018-05-23T15:09:00.986Z,28.92
2018-05-23T15:09:45.144Z,28.89
2018-05-23T15:10:26.643Z,28.94
2018-05-23T15:11:08.316Z,28.82
2018-05-23T15:11:48.761Z,28.69
2018-05-23T15:12:30.430Z,28.67
2018-05-23T15:13:11.041Z,28.64
2018-05-23T15:13:51.614Z,28.69
2018-05-23T15:14:32.472Z,28.64
2018-05-23T15:15:12.671Z,28.67
2018-05-23T15:15:53.297Z,28.52
2018-05-23T15:16:33.824Z,28.42
2018-05-23T15:17:15.052Z,28.4
2018-05-23T15:17:56.120Z,28.39
2018-05-23T15:19:54.375Z,28.43
2018-05-23T15:20:36.688Z,28.33
2018-05-23T15:21:18.230Z,28.33
2018-05-23T15:21:58.515Z,28.24
2018-05-23T15:22:39.504Z,28.21
2018-05-23T15:23:20.726Z,28.25
2018-05-23T15:24:01.568Z,28.18
2018-05-23T15:24:41.762Z,28.21
2018-05-23T15:25:22.799Z,28.05
2018-05-23T15:26:03.277Z,28.01
2018-05-23T15:26:43.687Z,27.84
2018-05-23T15:27:24.116Z,27.86
2018-05-23T15:28:04.809Z,27.68
2018-05-23T15:28:45.324Z,27.65
2018-05-23T15:29:25.792Z,27.58
2018-05-23T15:30:06.688Z,27.53
2018-05-23T15:30:48.534Z,27.55
2018-05-23T15:31:43.635Z,27.52
2018-05-23T15:32:24.054Z,27.58
2018-05-23T15:33:05.265Z,27.53
2018-05-23T15:33:45.609Z,27.53
2018-05-23T15:34:29.902Z,27.4
2018-05-23T15:35:10.702Z,27.39
2018-05-23T15:35:51.638Z,27.39
2018-05-23T15:36:32.833Z,27.4
2018-05-23T15:37:12.925Z,27.28
2018-05-23T15:37:53.997Z,27.03
2018-05-23T15:38:41.945Z,26.86
2018-05-23T15:39:22.301Z,26.68
2018-05-23T15:40:03.228Z,26.69
2018-05-23T15:40:43.787Z,26.53
2018-05-23T15:41:24.266Z,26.54
2018-05-23T15:42:05.513Z,26.5
2018-05-23T15:42:46.537Z,26.44
2018-05-23T15:43:27.219Z,26.49
2018-05-23T15:44:07.625Z,26.49
2018-05-23T15:47:01.372Z,26.46
2018-05-23T15:47:42.634Z,26.34
2018-05-23T15:48:22.988Z,26.34
2018-05-23T15:49:03.499Z,26.31
2018-05-23T15:49:43.891Z,26.35
2018-05-23T15:50:24.397Z,26.46
2018-05-23T15:52:02.467Z,26.61
2018-05-23T15:52:44.198Z,26.68
2018-05-23T15:53:25.254Z,26.75
2018-05-23T15:54:06.954Z,26.83
2018-05-23T15:54:55.243Z,26.88
2018-05-23T15:55:37.824Z,26.9
2018-05-23T15:56:19.880Z,27.06
2018-05-23T15:57:00.470Z,27.11
2018-05-23T15:57:44.786Z,27.09
2018-05-23T15:58:44.017Z,27.2
2018-05-23T15:59:41.139Z,27.24
2018-05-23T16:02:44.571Z,27.39
2018-05-23T16:03:25.302Z,27.39
2018-05-23T16:04:05.762Z,27.34
2018-05-23T16:04:46.194Z,27.42
2018-05-23T16:44:00.485Z,26.68
2018-05-23T16:44:42.222Z,26.65
2018-05-23T16:45:23.008Z,26.61
2018-05-23T16:46:03.661Z,26.61
2018-05-23T16:46:43.895Z,26.61
2018-05-23T16:47:24.331Z,26.6
2018-05-23T16:48:04.896Z,26.49
2018-05-23T16:48:45.320Z,26.53
2018-05-23T16:49:25.706Z,26.51
2018-05-23T16:50:06.317Z,26.44
2018-05-23T16:50:46.857Z,26.35
2018-05-23T16:51:27.510Z,26.39
2018-05-23T16:52:08.799Z,26.46
2018-05-23T16:52:48.833Z,26.49
2018-05-23T16:53:30.474Z,26.54
2018-05-23T16:54:12.501Z,26.49
2018-05-23T16:54:52.788Z,26.51
2018-05-23T16:55:33.329Z,26.6
2018-05-23T16:56:14.771Z,26.66
2018-05-23T16:56:56.032Z,26.61
2018-05-23T16:57:36.534Z,26.64
2018-05-23T16:58:17.040Z,26.68
2018-05-23T16:59:00.276Z,26.61
2018-05-23T16:59:40.039Z,26.69
2018-05-23T17:00:20.693Z,26.69
2018-05-23T17:01:00.884Z,26.76
2018-05-23T17:01:41.359Z,26.76
2018-05-23T17:02:21.986Z,26.9
2018-05-23T17:03:03.289Z,26.98
2018-05-23T17:03:42.943Z,26.97
2018-05-23T17:04:23.702Z,27.08
2018-05-23T17:05:04.184Z,27.08
2018-05-23T17:05:44.707Z,27.13
2018-05-23T17:06:27.991Z,26.93
2018-05-23T17:07:08.392Z,26.91
2018-05-23T17:07:48.798Z,26.91
2018-05-23T17:08:29.299Z,26.86
2018-05-23T17:09:09.768Z,26.9
2018-05-23T17:09:50.289Z,26.83
2018-05-23T17:10:31.179Z,26.84
2018-05-23T17:11:11.678Z,26.73
2018-05-23T17:11:52.131Z,26.69